createdAt,value
2019-03-15T00:00:40.978Z,5.80
2019-03-15T00:02:44.763Z,5.80
2019-03-15T00:04:48.959Z,5.80
2019-03-15T00:06:56.938Z,5.80
2019-03-15T00:09:04.428Z,5.90
2019-03-15T00:11:08.589Z,5.80
2019-03-15T00:13:15.361Z,5.80
2019-03-15T00:15:19.680Z,5.80
2019-03-15T00:17:24.543Z,5.80
2019-03-15T00:19:33.162Z,5.80
2019-03-15T00:21:37.206Z,5.80
2019-03-15T00:23:43.166Z,5.80
2019-03-15T00:25:47.484Z,5.80
2019-03-15T00:27:51.349Z,5.80
2019-03-15T00:29:57.916Z,5.70
2019-03-15T00:32:05.087Z,5.80
2019-03-15T00:34:10.653Z,5.70
2019-03-15T00:36:17.079Z,5.70
2019-03-15T00:38:24.226Z,5.70
2019-03-15T00:40:28.685Z,5.70
2019-03-15T00:42:34.549Z,5.70
2019-03-15T00:44:38.519Z,5.70
2019-03-15T00:46:42.370Z,5.70
2019-03-15T00:48:46.271Z,5.70
2019-03-15T00:50:50.170Z,5.70
2019-03-15T00:52:54.041Z,5.70
2019-03-15T00:54:57.940Z,5.70
2019-03-15T00:57:01.815Z,5.70
2019-03-15T00:59:08.862Z,5.70
2019-03-15T01:01:12.670Z,5.70
2019-03-15T01:03:16.561Z,5.70
2019-03-15T01:05:21.863Z,5.70
2019-03-15T01:07:25.737Z,5.70
2019-03-15T01:09:32.509Z,5.70
2019-03-15T01:11:37.512Z,5.70
2019-03-15T01:13:42.450Z,5.60
2019-03-15T01:15:49.879Z,5.70
2019-03-15T01:17:53.750Z,5.70
2019-03-15T01:20:01.480Z,5.70
2019-03-15T01:22:08.730Z,5.70
2019-03-15T01:24:14.227Z,5.60
2019-03-15T01:26:18.332Z,5.60
2019-03-15T01:28:22.606Z,5.60
2019-03-15T01:30:26.505Z,5.60
2019-03-15T01:32:30.518Z,5.70
2019-03-15T01:34:34.385Z,5.70
2019-03-15T01:36:38.262Z,5.70
2019-03-15T01:38:42.209Z,5.60
2019-03-15T01:40:48.768Z,5.60
2019-03-15T01:42:52.597Z,5.70
2019-03-15T01:44:56.498Z,5.70
2019-03-15T01:47:01.550Z,5.70
2019-03-15T01:49:05.947Z,5.70
2019-03-15T01:51:10.030Z,5.60
2019-03-15T01:53:13.887Z,5.60
2019-03-15T01:55:17.855Z,5.60
2019-03-15T01:57:21.764Z,5.60
2019-03-15T01:59:30.000Z,5.60
2019-03-15T02:01:33.920Z,5.60
2019-03-15T02:03:37.799Z,5.60
2019-03-15T02:05:42.067Z,5.60
2019-03-15T02:07:45.955Z,5.70
2019-03-15T02:09:50.759Z,5.60
2019-03-15T02:11:55.547Z,5.60
2019-03-15T02:14:02.087Z,5.50
2019-03-15T02:16:08.833Z,5.60
2019-03-15T02:18:14.738Z,5.50
2019-03-15T02:20:18.652Z,5.60
2019-03-15T02:22:25.862Z,5.60
2019-03-15T02:24:29.730Z,5.60
2019-03-15T02:26:38.010Z,5.60
2019-03-15T02:28:42.009Z,5.60
2019-03-15T02:30:49.433Z,5.60
2019-03-15T02:32:53.869Z,5.60
2019-03-15T02:34:58.178Z,5.60
2019-03-15T02:37:02.061Z,5.60
2019-03-15T02:39:06.768Z,5.60
2019-03-15T02:41:12.976Z,5.60
2019-03-15T02:43:17.158Z,5.60
2019-03-15T02:45:22.201Z,5.50
2019-03-15T02:47:27.314Z,5.60
2019-03-15T02:49:31.156Z,5.60
2019-03-15T02:51:35.041Z,5.60
2019-03-15T02:53:38.970Z,5.60
2019-03-15T02:55:42.846Z,5.60
2019-03-15T02:57:46.733Z,5.50
2019-03-15T02:59:53.915Z,5.60
2019-03-15T03:01:58.680Z,5.50
2019-03-15T03:04:02.568Z,5.50
2019-03-15T03:06:06.418Z,5.50
2019-03-15T03:08:10.410Z,5.50
2019-03-15T03:10:14.264Z,5.50
2019-03-15T03:12:21.473Z,5.60
2019-03-15T03:14:25.374Z,5.50
2019-03-15T03:16:29.286Z,5.50
2019-03-15T03:18:34.571Z,5.50
2019-03-15T03:20:43.289Z,5.60
2019-03-15T03:22:47.233Z,5.60
2019-03-15T03:24:51.278Z,5.60
2019-03-15T03:26:57.258Z,5.60
2019-03-15T03:29:01.150Z,5.70
2019-03-15T03:31:05.847Z,5.60
2019-03-15T03:33:12.434Z,5.70
2019-03-15T03:35:17.016Z,5.70
2019-03-15T03:37:20.984Z,5.70
2019-03-15T03:39:28.351Z,5.70
2019-03-15T03:41:32.567Z,5.70
2019-03-15T03:43:36.452Z,5.70
2019-03-15T03:45:43.414Z,5.70
2019-03-15T03:47:47.633Z,5.70
2019-03-15T03:49:51.486Z,5.80
2019-03-15T03:51:55.378Z,5.80
2019-03-15T03:53:59.292Z,5.70
2019-03-15T03:56:05.932Z,5.70
2019-03-15T03:58:09.814Z,5.80
2019-03-15T04:00:15.904Z,5.80
2019-03-15T04:02:24.051Z,5.80
2019-03-15T04:04:28.335Z,5.80
2019-03-15T04:06:32.228Z,5.80
2019-03-15T04:08:39.527Z,5.80
2019-03-15T04:10:45.970Z,5.80
2019-03-15T04:12:50.628Z,5.80
2019-03-15T04:14:57.528Z,5.80
2019-03-15T04:17:01.790Z,5.90
2019-03-15T04:19:09.348Z,5.90
2019-03-15T04:21:14.553Z,5.80
2019-03-15T04:23:19.536Z,5.80
2019-03-15T04:25:23.467Z,5.80
2019-03-15T04:27:27.323Z,5.80
2019-03-15T04:29:32.422Z,5.80
2019-03-15T04:31:36.327Z,5.80
2019-03-15T04:33:43.695Z,5.80
2019-03-15T04:35:47.951Z,5.80
2019-03-15T04:37:52.470Z,5.80
2019-03-15T04:39:58.566Z,5.80
2019-03-15T04:42:05.986Z,5.80
2019-03-15T04:44:11.853Z,5.90
2019-03-15T04:46:19.946Z,5.80
2019-03-15T04:48:23.809Z,5.80
2019-03-15T04:50:27.719Z,5.80
2019-03-15T04:52:35.869Z,5.80
2019-03-15T04:54:40.065Z,5.80
2019-03-15T04:56:43.964Z,5.90
2019-03-15T04:58:47.810Z,5.80
2019-03-15T05:00:54.525Z,5.80
2019-03-15T05:02:58.580Z,5.80
2019-03-15T05:05:02.517Z,5.90
2019-03-15T05:07:06.351Z,5.90
2019-03-15T05:09:10.208Z,5.90
2019-03-15T05:11:14.113Z,5.90
2019-03-15T05:13:17.954Z,5.90
2019-03-15T05:15:22.807Z,5.90
2019-03-15T05:17:29.081Z,5.90
2019-03-15T05:19:33.334Z,5.90
2019-03-15T05:21:37.290Z,6.00
2019-03-15T05:23:41.159Z,6.00
2019-03-15T05:25:45.231Z,6.00
2019-03-15T05:27:49.093Z,6.00
2019-03-15T05:29:57.255Z,5.90
2019-03-15T05:32:01.667Z,5.90
2019-03-15T05:34:05.517Z,6.00
2019-03-15T05:36:09.419Z,6.00
2019-03-15T05:38:13.288Z,5.90
2019-03-15T05:40:17.127Z,5.90
2019-03-15T05:42:21.093Z,5.90
2019-03-15T05:44:24.946Z,6.00
2019-03-15T05:46:28.817Z,6.00
2019-03-15T05:48:32.725Z,6.00
2019-03-15T05:50:36.626Z,6.00
2019-03-15T05:52:40.536Z,6.10
2019-03-15T05:54:44.454Z,6.10
2019-03-15T05:56:48.354Z,6.10
2019-03-15T05:58:52.274Z,6.10
2019-03-15T06:00:56.170Z,6.20
2019-03-15T06:03:00.045Z,6.20
2019-03-15T06:05:04.301Z,6.20
2019-03-15T06:07:08.178Z,6.20
2019-03-15T06:09:12.056Z,6.20
2019-03-15T06:11:15.939Z,6.30
2019-03-15T06:13:19.795Z,6.30
2019-03-15T06:15:23.724Z,6.30
2019-03-15T06:17:27.597Z,6.30
2019-03-15T06:19:31.455Z,6.40
2019-03-15T06:21:35.401Z,6.40
2019-03-15T06:23:39.273Z,6.40
2019-03-15T06:25:43.176Z,6.40
2019-03-15T06:27:47.037Z,6.40
2019-03-15T06:29:50.902Z,6.40
2019-03-15T06:31:54.812Z,6.40
2019-03-15T06:33:58.697Z,6.40
2019-03-15T06:36:02.567Z,6.50
2019-03-15T06:38:06.441Z,6.40
2019-03-15T06:40:13.680Z,6.40
2019-03-15T06:42:16.791Z,6.40
2019-03-15T06:44:20.716Z,6.40
2019-03-15T06:46:24.650Z,6.40
2019-03-15T06:48:28.530Z,6.30
2019-03-15T06:50:32.381Z,6.30
2019-03-15T06:52:36.508Z,6.30
2019-03-15T06:54:40.338Z,6.30
2019-03-15T06:56:44.181Z,6.40
2019-03-15T06:58:48.090Z,6.40
2019-03-15T07:00:54.640Z,6.30
2019-03-15T07:02:57.491Z,6.40
2019-03-15T07:07:17.488Z,6.40
2019-03-15T07:09:21.345Z,6.40
2019-03-15T07:11:25.236Z,6.50
2019-03-15T07:13:29.102Z,6.50
2019-03-15T07:15:32.931Z,6.50
2019-03-15T07:17:36.771Z,6.60
2019-03-15T07:19:40.675Z,6.60
2019-03-15T07:21:46.742Z,6.60
2019-03-15T07:23:49.922Z,6.60
2019-03-15T07:25:53.768Z,6.70
2019-03-15T07:28:02.144Z,6.60
2019-03-15T07:30:10.202Z,6.60
2019-03-15T07:32:14.397Z,6.60
2019-03-15T07:34:18.234Z,6.70
2019-03-15T07:36:21.998Z,6.70
2019-03-15T07:38:26.017Z,6.70
2019-03-15T07:40:29.900Z,6.80
2019-03-15T07:42:33.725Z,6.80
2019-03-15T07:44:37.559Z,6.80
2019-03-15T07:46:41.465Z,6.80
2019-03-15T07:48:45.377Z,6.90
2019-03-15T07:50:49.264Z,6.90
2019-03-15T07:52:53.093Z,6.90
2019-03-15T07:54:57.097Z,7.00
2019-03-15T07:57:00.920Z,7.00
2019-03-15T07:59:04.686Z,7.10
2019-03-15T08:01:08.553Z,7.10
2019-03-15T08:03:12.410Z,7.20
2019-03-15T08:05:16.230Z,7.20
2019-03-15T08:07:20.374Z,7.20
2019-03-15T08:09:24.230Z,7.20
2019-03-15T08:11:28.243Z,7.20
2019-03-15T08:13:32.108Z,7.20
2019-03-15T08:15:35.935Z,7.30
2019-03-15T08:17:39.898Z,7.30
2019-03-15T08:19:43.743Z,7.30
2019-03-15T08:21:47.518Z,7.40
2019-03-15T08:23:51.415Z,7.40
2019-03-15T08:25:55.204Z,7.40
2019-03-15T08:27:59.075Z,7.50
2019-03-15T08:30:03.188Z,7.50
2019-03-15T08:32:07.085Z,7.50
2019-03-15T08:34:10.842Z,7.50
2019-03-15T08:36:14.833Z,7.50
2019-03-15T08:38:18.655Z,7.50
2019-03-15T08:40:25.658Z,7.50
2019-03-15T08:42:28.066Z,7.50
2019-03-15T08:44:31.890Z,7.50
2019-03-15T08:46:35.765Z,7.50
2019-03-15T08:48:39.659Z,7.50
2019-03-15T08:50:43.473Z,7.50
2019-03-15T08:52:47.292Z,7.50
2019-03-15T08:55:04.329Z,7.50
2019-03-15T08:56:56.725Z,7.50
2019-03-15T08:59:00.581Z,7.50
2019-03-15T09:01:04.470Z,7.50
2019-03-15T09:03:08.289Z,7.60
2019-03-15T09:05:15.743Z,7.50
2019-03-15T09:07:19.637Z,7.50
2019-03-15T09:09:23.507Z,7.50
2019-03-15T09:11:27.412Z,7.50
2019-03-15T09:13:31.234Z,7.50
2019-03-15T09:15:35.137Z,7.50
2019-03-15T09:17:38.961Z,7.40
2019-03-15T09:19:42.786Z,7.40
2019-03-15T09:21:46.644Z,7.40
2019-03-15T09:23:50.481Z,7.40
2019-03-15T09:25:54.411Z,7.60
2019-03-15T09:27:58.253Z,7.50
2019-03-15T09:30:02.187Z,7.50
2019-03-15T09:32:09.153Z,7.50
2019-03-15T09:34:11.438Z,7.50
2019-03-15T09:36:15.304Z,7.50
2019-03-15T09:38:19.133Z,7.50
2019-03-15T09:40:25.769Z,7.50
2019-03-15T09:42:28.538Z,7.50
2019-03-15T09:44:32.363Z,7.50
2019-03-15T09:46:36.258Z,7.50
2019-03-15T09:48:40.017Z,7.50
2019-03-15T09:50:51.210Z,7.60
2019-03-15T09:52:49.406Z,7.60
2019-03-15T09:54:53.247Z,7.60
2019-03-15T09:56:57.052Z,7.50
2019-03-15T09:59:00.973Z,7.70
2019-03-15T10:01:05.325Z,7.70
2019-03-15T10:03:21.491Z,7.60
2019-03-15T10:05:15.636Z,7.60
2019-03-15T10:07:19.538Z,7.60
2019-03-15T10:09:23.456Z,7.70
2019-03-15T10:11:27.309Z,7.70
2019-03-15T10:13:31.239Z,7.70
2019-03-15T10:15:35.178Z,7.70
2019-03-15T10:17:39.246Z,7.70
2019-03-15T10:19:43.079Z,7.70
2019-03-15T10:21:46.914Z,7.80
2019-03-15T10:23:50.780Z,7.80
2019-03-15T10:25:54.669Z,7.90
2019-03-15T10:27:58.554Z,7.90
2019-03-15T10:30:02.364Z,7.90
2019-03-15T10:32:06.173Z,8.00
2019-03-15T10:34:10.074Z,8.10
2019-03-15T10:36:13.877Z,8.10
2019-03-15T10:38:17.725Z,8.20
2019-03-15T10:40:23.850Z,8.20
2019-03-15T10:42:27.729Z,8.20
2019-03-15T10:44:31.614Z,8.20
2019-03-15T10:46:35.480Z,8.20
2019-03-15T10:48:39.261Z,8.30
2019-03-15T10:50:43.096Z,8.30
2019-03-15T10:52:46.940Z,8.40
2019-03-15T10:54:50.807Z,8.40
2019-03-15T10:56:54.621Z,8.50
2019-03-15T10:58:58.488Z,8.50
2019-03-15T11:01:02.345Z,8.60
2019-03-15T11:03:06.164Z,8.60
2019-03-15T11:05:10.914Z,8.60
2019-03-15T11:07:14.732Z,8.70
2019-03-15T11:09:18.583Z,8.80
2019-03-15T11:11:22.439Z,8.90
2019-03-15T11:13:26.274Z,9.00
2019-03-15T11:15:30.121Z,9.10
2019-03-15T11:17:34.022Z,9.20
2019-03-15T11:19:37.852Z,9.20
2019-03-15T11:21:41.833Z,9.30
2019-03-15T11:23:45.661Z,9.30
2019-03-15T11:25:49.540Z,9.30
2019-03-15T11:27:53.386Z,9.40
2019-03-15T11:29:57.265Z,9.60
2019-03-15T11:32:01.093Z,9.60
2019-03-15T11:34:04.913Z,9.50
2019-03-15T11:36:08.776Z,9.70
2019-03-15T11:38:12.623Z,9.70
2019-03-15T11:40:19.065Z,10.10
2019-03-15T11:42:22.953Z,10.20
2019-03-15T11:44:26.785Z,10.10
2019-03-15T11:46:30.720Z,10.30
2019-03-15T11:48:34.503Z,10.30
2019-03-15T11:50:38.384Z,10.40
2019-03-15T11:52:42.239Z,10.50
2019-03-15T11:54:46.078Z,10.50
2019-03-15T11:56:50.955Z,10.40
2019-03-15T11:58:54.956Z,10.30
2019-03-15T12:00:58.763Z,10.20
2019-03-15T12:03:02.644Z,10.30
2019-03-15T12:05:07.324Z,10.30
2019-03-15T12:07:11.155Z,10.30
2019-03-15T12:09:14.999Z,10.50
2019-03-15T12:11:18.901Z,10.60
2019-03-15T12:13:22.730Z,10.60
2019-03-15T12:15:26.563Z,10.80
2019-03-15T12:17:30.433Z,10.70
2019-03-15T12:19:34.265Z,10.80
2019-03-15T12:21:38.180Z,11.20
2019-03-15T12:23:41.993Z,11.40
2019-03-15T12:25:45.938Z,11.40
2019-03-15T12:27:49.677Z,11.40
2019-03-15T12:29:53.509Z,11.30
2019-03-15T12:31:57.372Z,11.30
2019-03-15T12:34:01.201Z,11.30
2019-03-15T12:36:05.210Z,11.20
2019-03-15T12:38:09.042Z,11.20
2019-03-15T12:40:15.037Z,11.20
2019-03-15T12:42:18.844Z,11.20
2019-03-15T12:44:22.672Z,11.10
2019-03-15T12:46:26.500Z,11.40
2019-03-15T12:48:30.393Z,11.50
2019-03-15T12:50:34.334Z,11.30
2019-03-15T12:52:47.344Z,11.30
2019-03-15T12:54:43.600Z,11.40
2019-03-15T12:56:53.823Z,11.20
2019-03-15T12:58:52.925Z,11.20
2019-03-15T13:00:56.788Z,11.10
2019-03-15T13:03:00.561Z,10.70
2019-03-15T13:05:05.390Z,10.40
2019-03-15T13:07:09.217Z,10.30
2019-03-15T13:09:13.703Z,10.30
2019-03-15T13:11:17.505Z,10.30
2019-03-15T13:13:21.349Z,10.40
2019-03-15T13:15:25.231Z,10.20
2019-03-15T13:17:28.989Z,10.20
2019-03-15T13:19:32.863Z,10.30
2019-03-15T13:21:36.678Z,10.10
2019-03-15T13:23:40.516Z,10.10
2019-03-15T13:25:44.381Z,10.10
2019-03-15T13:27:48.174Z,10.10
2019-03-15T13:29:52.005Z,10.50
2019-03-15T13:31:55.791Z,11.50
2019-03-15T13:33:59.660Z,11.90
2019-03-15T13:36:03.492Z,12.30
2019-03-15T13:38:07.285Z,12.60
2019-03-15T13:40:20.127Z,13.10
2019-03-15T13:42:24.048Z,13.40
2019-03-15T13:44:27.922Z,13.50
2019-03-15T13:46:31.836Z,14.10
2019-03-15T13:48:35.693Z,14.50
2019-03-15T13:50:39.535Z,14.50
2019-03-15T13:52:43.409Z,14.40
2019-03-15T13:54:47.266Z,14.50
2019-03-15T13:56:51.113Z,15.00
2019-03-15T13:58:57.525Z,15.50
2019-03-15T14:01:00.387Z,15.00
2019-03-15T14:03:04.160Z,14.10
2019-03-15T14:05:08.013Z,14.60
2019-03-15T14:07:11.849Z,13.40
2019-03-15T14:09:15.798Z,13.30
2019-03-15T14:11:19.552Z,12.90
2019-03-15T14:13:23.374Z,12.70
2019-03-15T14:15:27.607Z,12.80
2019-03-15T14:17:31.763Z,12.60
2019-03-15T14:19:35.668Z,12.70
2019-03-15T14:21:39.523Z,12.80
2019-03-15T14:23:43.386Z,12.80
2019-03-15T14:25:47.285Z,12.80
2019-03-15T14:27:51.112Z,12.70
2019-03-15T14:29:54.941Z,12.60
2019-03-15T14:31:58.762Z,12.40
2019-03-15T14:34:02.576Z,12.40
2019-03-15T14:36:06.413Z,12.90
2019-03-15T14:38:10.371Z,13.40
2019-03-15T14:40:14.564Z,13.30
2019-03-15T14:42:18.691Z,13.90
2019-03-15T14:44:22.581Z,13.40
2019-03-15T14:46:26.429Z,13.60
2019-03-15T14:48:30.295Z,14.60
2019-03-15T14:50:34.261Z,15.20
2019-03-15T14:52:38.094Z,14.80
2019-03-15T14:54:42.503Z,13.80
2019-03-15T14:56:46.533Z,14.00
2019-03-15T14:58:50.413Z,15.20
2019-03-15T15:00:54.272Z,15.00
2019-03-15T15:02:58.048Z,14.10
2019-03-15T15:05:01.877Z,13.30
2019-03-15T15:07:05.741Z,12.70
2019-03-15T15:09:09.564Z,12.40
2019-03-15T15:11:13.510Z,12.20
2019-03-15T15:13:17.335Z,11.90
2019-03-15T15:15:21.450Z,11.80
2019-03-15T15:17:27.788Z,11.80
2019-03-15T15:19:33.126Z,11.60
2019-03-15T15:21:37.188Z,11.40
2019-03-15T15:23:41.092Z,11.50
2019-03-15T15:25:44.982Z,11.50
2019-03-15T15:27:48.915Z,11.60
2019-03-15T15:29:52.853Z,11.60
2019-03-15T15:31:56.781Z,12.10
2019-03-15T15:34:00.667Z,11.70
2019-03-15T15:36:04.649Z,11.90
2019-03-15T15:38:08.524Z,12.30
2019-03-15T15:40:17.444Z,13.70
2019-03-15T15:42:21.379Z,12.50
2019-03-15T15:44:25.466Z,13.00
2019-03-15T15:46:29.399Z,13.10
2019-03-15T15:48:33.545Z,12.90
2019-03-15T15:50:37.393Z,12.40
2019-03-15T15:52:41.254Z,11.90
2019-03-15T15:54:45.216Z,11.60
2019-03-15T15:56:50.981Z,11.50
2019-03-15T15:58:54.448Z,11.30
2019-03-15T16:00:58.298Z,11.20
2019-03-15T16:03:02.199Z,11.00
2019-03-15T16:05:08.638Z,10.90
2019-03-15T16:07:12.269Z,11.00
2019-03-15T16:09:16.155Z,10.80
2019-03-15T16:11:20.011Z,10.80
2019-03-15T16:13:23.880Z,10.80
2019-03-15T16:15:27.737Z,10.80
2019-03-15T16:17:31.567Z,10.70
2019-03-15T16:19:35.481Z,10.60
2019-03-15T16:21:39.444Z,10.30
2019-03-15T16:23:43.302Z,10.30
2019-03-15T16:25:47.144Z,10.60
2019-03-15T16:27:51.125Z,10.80
2019-03-15T16:29:54.947Z,10.60
2019-03-15T16:31:58.825Z,10.50
2019-03-15T16:34:02.689Z,10.50
2019-03-15T16:36:06.513Z,10.50
2019-03-15T16:38:10.935Z,10.80
2019-03-15T16:40:15.660Z,10.70
2019-03-15T16:42:19.485Z,10.60
2019-03-15T16:44:23.361Z,10.30
2019-03-15T16:46:27.208Z,10.20
2019-03-15T16:48:31.035Z,10.20
2019-03-15T16:50:34.910Z,10.30
2019-03-15T16:52:38.779Z,10.20
2019-03-15T16:54:42.568Z,10.10
2019-03-15T16:56:46.404Z,10.00
2019-03-15T16:58:50.337Z,9.80
2019-03-15T17:00:54.208Z,9.80
2019-03-15T17:02:58.102Z,9.60
2019-03-15T17:05:01.877Z,9.50
2019-03-15T17:07:05.627Z,9.50
2019-03-15T17:09:09.482Z,9.40
2019-03-15T17:11:13.369Z,9.40
2019-03-15T17:13:17.189Z,9.40
2019-03-15T17:15:25.626Z,9.30
2019-03-15T17:17:29.402Z,9.20
2019-03-15T17:19:33.268Z,9.10
2019-03-15T17:21:37.109Z,9.20
2019-03-15T17:23:40.913Z,9.20
2019-03-15T17:25:44.789Z,9.10
2019-03-15T17:27:48.612Z,9.00
2019-03-15T17:29:52.421Z,9.00
2019-03-15T17:31:56.875Z,8.90
2019-03-15T17:34:00.744Z,8.90
2019-03-15T17:36:04.521Z,9.00
2019-03-15T17:38:08.432Z,8.90
2019-03-15T17:40:17.858Z,8.90
2019-03-15T17:42:21.780Z,8.90
2019-03-15T17:44:25.654Z,8.90
2019-03-15T17:46:29.606Z,8.90
2019-03-15T17:48:33.518Z,8.80
2019-03-15T17:50:37.434Z,8.90
2019-03-15T17:52:41.337Z,8.80
2019-03-15T17:54:45.209Z,8.80
2019-03-15T17:56:49.146Z,8.80
2019-03-15T17:58:53.002Z,8.80
2019-03-15T18:00:56.900Z,8.70
2019-03-15T18:03:00.749Z,8.70
2019-03-15T18:05:06.404Z,8.60
2019-03-15T18:07:10.323Z,8.60
2019-03-15T18:09:14.211Z,8.60
2019-03-15T18:11:18.113Z,8.50
2019-03-15T18:13:21.990Z,8.60
2019-03-15T18:15:25.891Z,8.50
2019-03-15T18:17:29.777Z,8.50
2019-03-15T18:19:33.684Z,8.50
2019-03-15T18:21:37.574Z,8.50
2019-03-15T18:23:41.443Z,8.50
2019-03-15T18:25:45.312Z,8.60
2019-03-15T18:27:49.438Z,8.60
2019-03-15T18:29:53.290Z,8.60
2019-03-15T18:31:57.193Z,8.50
2019-03-15T18:34:01.076Z,8.50
2019-03-15T18:36:04.937Z,8.40
2019-03-15T18:38:08.798Z,8.30
2019-03-15T18:40:17.105Z,8.40
2019-03-15T18:42:20.933Z,8.30
2019-03-15T18:44:24.821Z,8.30
2019-03-15T18:46:28.724Z,8.30
2019-03-15T18:48:32.695Z,8.20
2019-03-15T18:50:36.572Z,8.20
2019-03-15T18:52:40.418Z,8.20
2019-03-15T18:54:44.347Z,8.10
2019-03-15T18:56:48.188Z,8.10
2019-03-15T18:58:52.114Z,8.00
2019-03-15T19:00:56.000Z,8.00
2019-03-15T19:03:00.229Z,8.00
2019-03-15T19:05:05.241Z,7.90
2019-03-15T19:07:09.125Z,8.00
2019-03-15T19:09:12.981Z,7.90
2019-03-15T19:11:16.909Z,7.90
2019-03-15T19:13:20.825Z,7.80
2019-03-15T19:15:25.049Z,7.80
2019-03-15T19:17:28.889Z,7.80
2019-03-15T19:19:32.769Z,7.80
2019-03-15T19:21:36.693Z,7.70
2019-03-15T19:23:40.602Z,7.70
2019-03-15T19:25:44.638Z,7.80
2019-03-15T19:27:48.605Z,7.70
2019-03-15T19:29:53.914Z,7.80
2019-03-15T19:31:58.207Z,7.80
2019-03-15T19:34:02.090Z,7.70
2019-03-15T19:36:05.973Z,7.80
2019-03-15T19:38:09.845Z,7.80
2019-03-15T19:40:17.418Z,7.70
2019-03-15T19:42:21.302Z,7.70
2019-03-15T19:44:25.184Z,7.80
2019-03-15T19:46:29.035Z,7.80
2019-03-15T19:48:33.090Z,7.80
2019-03-15T19:50:36.993Z,7.80
2019-03-15T19:52:40.829Z,7.80
2019-03-15T19:54:44.726Z,7.80
2019-03-15T19:56:48.617Z,7.80
2019-03-15T19:58:52.534Z,7.80
2019-03-15T20:00:56.404Z,7.80
2019-03-15T20:03:00.283Z,7.80
2019-03-15T20:05:05.062Z,7.70
2019-03-15T20:07:08.938Z,7.70
2019-03-15T20:09:12.815Z,7.70
2019-03-15T20:11:16.706Z,7.70
2019-03-15T20:13:20.629Z,7.70
2019-03-15T20:15:24.492Z,7.60
2019-03-15T20:17:28.428Z,7.60
2019-03-15T20:19:32.264Z,7.60
2019-03-15T20:21:36.139Z,7.60
2019-03-15T20:23:40.019Z,7.60
2019-03-15T20:25:43.926Z,7.70
2019-03-15T20:27:47.873Z,7.70
2019-03-15T20:29:51.754Z,7.70
2019-03-15T20:31:55.628Z,7.60
2019-03-15T20:33:59.594Z,7.60
2019-03-15T20:36:03.564Z,7.60
2019-03-15T20:38:07.407Z,7.60
2019-03-15T20:40:12.794Z,7.60
2019-03-15T20:42:16.668Z,7.60
2019-03-15T20:44:28.507Z,7.50
2019-03-15T20:46:35.701Z,7.50
2019-03-15T20:48:31.913Z,7.40
2019-03-15T20:50:46.124Z,7.40
2019-03-15T20:52:41.319Z,7.40
2019-03-15T20:54:45.229Z,7.40
2019-03-15T20:56:49.141Z,7.30
2019-03-15T20:58:53.013Z,7.30
2019-03-15T21:00:56.961Z,7.30
2019-03-15T21:03:00.856Z,7.40
2019-03-15T21:05:07.867Z,7.40
2019-03-15T21:07:10.750Z,7.30
2019-03-15T21:09:14.643Z,7.30
2019-03-15T21:11:18.489Z,7.30
2019-03-15T21:13:22.373Z,7.30
2019-03-15T21:15:26.272Z,7.30
2019-03-15T21:17:30.143Z,7.30
2019-03-15T21:19:34.059Z,7.40
2019-03-15T21:21:37.976Z,7.40
2019-03-15T21:23:41.842Z,7.40
2019-03-15T21:25:45.720Z,7.40
2019-03-15T21:27:54.103Z,7.40
2019-03-15T21:29:55.233Z,7.30
2019-03-15T21:31:59.093Z,7.30
2019-03-15T21:34:03.068Z,7.40
2019-03-15T21:36:06.950Z,7.30
2019-03-15T21:38:10.848Z,7.30
2019-03-15T21:40:15.804Z,7.30
2019-03-15T21:42:19.646Z,7.30
2019-03-15T21:44:23.589Z,7.30
2019-03-15T21:46:27.437Z,7.30
2019-03-15T21:48:31.305Z,7.20
2019-03-15T21:50:35.189Z,7.20
2019-03-15T21:52:39.034Z,7.20
2019-03-15T21:54:42.915Z,7.20
2019-03-15T21:56:46.794Z,7.20
2019-03-15T21:58:50.684Z,7.20
2019-03-15T22:01:02.159Z,7.30
2019-03-15T22:03:00.132Z,7.30
2019-03-15T22:05:04.759Z,7.40
2019-03-15T22:07:08.667Z,7.40
2019-03-15T22:09:12.543Z,7.30
2019-03-15T22:11:21.412Z,7.50
2019-03-15T22:13:22.069Z,7.40
2019-03-15T22:15:25.908Z,7.40
2019-03-15T22:17:29.827Z,7.40
2019-03-15T22:19:33.771Z,7.40
2019-03-15T22:21:37.671Z,7.40
2019-03-15T22:23:41.552Z,7.40
2019-03-15T22:25:45.425Z,7.40
2019-03-15T22:27:50.359Z,7.40
2019-03-15T22:29:54.531Z,7.40
2019-03-15T22:31:58.395Z,7.40
2019-03-15T22:34:02.298Z,7.40
2019-03-15T22:36:06.162Z,7.40
2019-03-15T22:38:10.016Z,7.40
2019-03-15T22:40:14.517Z,7.40
2019-03-15T22:42:18.366Z,7.40
2019-03-15T22:44:22.217Z,7.40
2019-03-15T22:46:26.118Z,7.40
2019-03-15T22:48:30.010Z,7.40
2019-03-15T22:50:33.880Z,7.40
2019-03-15T22:52:37.798Z,7.30
2019-03-15T22:54:41.660Z,7.20
2019-03-15T22:56:45.500Z,7.20
2019-03-15T22:58:49.381Z,7.20
2019-03-15T23:00:53.276Z,7.20
2019-03-15T23:02:57.204Z,7.10
2019-03-15T23:05:01.205Z,7.00
2019-03-15T23:07:05.121Z,7.10
2019-03-15T23:09:08.998Z,7.10
2019-03-15T23:11:12.845Z,7.00
2019-03-15T23:13:16.762Z,7.00
2019-03-15T23:15:20.625Z,7.20
2019-03-15T23:17:24.467Z,7.10
2019-03-15T23:19:28.399Z,7.10
2019-03-15T23:21:32.297Z,7.00
2019-03-15T23:23:36.213Z,7.00
2019-03-15T23:25:40.151Z,7.00
2019-03-15T23:27:44.361Z,7.00
2019-03-15T23:29:48.231Z,7.00
2019-03-15T23:31:52.191Z,7.00
2019-03-15T23:33:56.085Z,6.90
2019-03-15T23:35:59.946Z,6.80
2019-03-15T23:38:03.870Z,6.90
2019-03-15T23:40:10.404Z,6.80
2019-03-15T23:42:14.253Z,6.80
2019-03-15T23:44:18.151Z,6.80
2019-03-15T23:46:21.998Z,6.80
2019-03-15T23:48:25.905Z,6.80
2019-03-15T23:50:29.770Z,6.80
2019-03-15T23:52:33.633Z,6.70
2019-03-15T23:54:37.579Z,6.70
2019-03-15T23:56:41.440Z,6.70
2019-03-15T23:58:45.282Z,6.80
